sensor_id;sensor_type;location;lat;lon;timestamp;P1;durP1;ratioP1;P2;durP2;ratioP2
22737;SDS011;11536;50.860;4.286;2022-08-19T00:00:19;15.35;;;11.02;;
22737;SDS011;11536;50.860;4.286;2022-08-19T00:02:45;16.10;;;11.55;;
22737;SDS011;11536;50.860;4.286;2022-08-19T00:05:12;14.95;;;10.57;;
22737;SDS011;11536;50.860;4.286;2022-08-19T00:07:39;16.13;;;11.32;;
22737;SDS011;11536;50.860;4.286;2022-08-19T00:10:05;18.10;;;13.70;;
22737;SDS011;11536;50.860;4.286;2022-08-19T00:12:32;19.67;;;14.45;;
22737;SDS011;11536;50.860;4.286;2022-08-19T00:14:59;21.25;;;14.70;;
22737;SDS011;11536;50.860;4.286;2022-08-19T00:17:25;23.42;;;16.20;;
22737;SDS011;11536;50.860;4.286;2022-08-19T00:19:50;24.48;;;16.60;;
22737;SDS011;11536;50.860;4.286;2022-08-19T00:22:16;23.88;;;16.70;;
22737;SDS011;11536;50.860;4.286;2022-08-19T00:24:43;22.25;;;15.80;;
22737;SDS011;11536;50.860;4.286;2022-08-19T00:27:10;21.77;;;14.68;;
22737;SDS011;11536;50.860;4.286;2022-08-19T00:29:36;21.45;;;15.13;;
22737;SDS011;11536;50.860;4.286;2022-08-19T00:32:02;26.50;;;16.73;;
22737;SDS011;11536;50.860;4.286;2022-08-19T00:34:27;23.48;;;16.27;;
22737;SDS011;11536;50.860;4.286;2022-08-19T00:36:53;23.13;;;15.98;;
22737;SDS011;11536;50.860;4.286;2022-08-19T00:39:20;26.08;;;17.67;;
22737;SDS011;11536;50.860;4.286;2022-08-19T00:41:46;26.23;;;16.88;;
22737;SDS011;11536;50.860;4.286;2022-08-19T00:44:17;27.50;;;18.30;;
22737;SDS011;11536;50.860;4.286;2022-08-19T00:46:51;26.90;;;17.60;;
22737;SDS011;11536;50.860;4.286;2022-08-19T00:49:19;29.63;;;19.80;;
22737;SDS011;11536;50.860;4.286;2022-08-19T00:51:53;26.05;;;18.10;;
22737;SDS011;11536;50.860;4.286;2022-08-19T00:54:25;26.77;;;17.92;;
22737;SDS011;11536;50.860;4.286;2022-08-19T00:56:51;30.15;;;19.17;;
22737;SDS011;11536;50.860;4.286;2022-08-19T00:59:17;28.10;;;19.35;;
22737;SDS011;11536;50.860;4.286;2022-08-19T01:01:44;30.08;;;20.65;;
22737;SDS011;11536;50.860;4.286;2022-08-19T01:04:11;30.77;;;21.05;;
22737;SDS011;11536;50.860;4.286;2022-08-19T01:06:38;33.03;;;21.58;;
22737;SDS011;11536;50.860;4.286;2022-08-19T01:09:05;31.63;;;21.92;;
22737;SDS011;11536;50.860;4.286;2022-08-19T01:11:33;35.70;;;23.42;;
22737;SDS011;11536;50.860;4.286;2022-08-19T01:14:01;34.58;;;22.63;;
22737;SDS011;11536;50.860;4.286;2022-08-19T01:16:28;38.45;;;24.20;;
22737;SDS011;11536;50.860;4.286;2022-08-19T01:18:55;36.70;;;24.27;;
22737;SDS011;11536;50.860;4.286;2022-08-19T01:23:56;39.40;;;24.33;;
22737;SDS011;11536;50.860;4.286;2022-08-19T01:26:22;37.55;;;25.33;;
22737;SDS011;11536;50.860;4.286;2022-08-19T01:28:50;39.45;;;25.38;;
22737;SDS011;11536;50.860;4.286;2022-08-19T01:31:20;37.65;;;25.35;;
22737;SDS011;11536;50.860;4.286;2022-08-19T01:33:49;36.25;;;23.75;;
22737;SDS011;11536;50.860;4.286;2022-08-19T01:36:24;43.63;;;26.52;;
22737;SDS011;11536;50.860;4.286;2022-08-19T01:38:53;40.35;;;26.02;;
22737;SDS011;11536;50.860;4.286;2022-08-19T01:41:19;35.83;;;24.02;;
22737;SDS011;11536;50.860;4.286;2022-08-19T01:43:45;38.35;;;24.30;;
22737;SDS011;11536;50.860;4.286;2022-08-19T01:46:11;35.58;;;23.27;;
22737;SDS011;11536;50.860;4.286;2022-08-19T01:48:40;33.78;;;22.63;;
22737;SDS011;11536;50.860;4.286;2022-08-19T01:51:08;35.92;;;22.30;;
22737;SDS011;11536;50.860;4.286;2022-08-19T01:53:35;32.00;;;21.45;;
22737;SDS011;11536;50.860;4.286;2022-08-19T01:56:01;34.38;;;22.75;;
22737;SDS011;11536;50.860;4.286;2022-08-19T01:58:29;33.10;;;20.63;;
22737;SDS011;11536;50.860;4.286;2022-08-19T02:00:58;28.95;;;20.00;;
22737;SDS011;11536;50.860;4.286;2022-08-19T02:03:23;32.83;;;20.52;;
22737;SDS011;11536;50.860;4.286;2022-08-19T02:05:53;29.02;;;19.20;;
22737;SDS011;11536;50.860;4.286;2022-08-19T02:08:24;27.45;;;17.73;;
22737;SDS011;11536;50.860;4.286;2022-08-19T02:10:53;26.55;;;17.08;;
22737;SDS011;11536;50.860;4.286;2022-08-19T02:13:19;24.17;;;15.70;;
22737;SDS011;11536;50.860;4.286;2022-08-19T02:15:45;27.15;;;17.77;;
22737;SDS011;11536;50.860;4.286;2022-08-19T02:18:10;27.45;;;17.48;;
22737;SDS011;11536;50.860;4.286;2022-08-19T02:20:36;26.95;;;16.65;;
22737;SDS011;11536;50.860;4.286;2022-08-19T02:23:04;27.77;;;17.00;;
22737;SDS011;11536;50.860;4.286;2022-08-19T02:25:30;28.27;;;16.85;;
22737;SDS011;11536;50.860;4.286;2022-08-19T02:27:55;25.95;;;17.27;;
22737;SDS011;11536;50.860;4.286;2022-08-19T02:30:21;28.70;;;17.38;;
22737;SDS011;11536;50.860;4.286;2022-08-19T02:32:47;26.33;;;17.63;;
22737;SDS011;11536;50.860;4.286;2022-08-19T02:35:13;26.17;;;16.58;;
22737;SDS011;11536;50.860;4.286;2022-08-19T02:37:39;27.00;;;17.75;;
22737;SDS011;11536;50.860;4.286;2022-08-19T02:40:24;27.08;;;17.55;;
22737;SDS011;11536;50.860;4.286;2022-08-19T02:42:50;25.23;;;16.55;;
22737;SDS011;11536;50.860;4.286;2022-08-19T02:45:16;30.85;;;17.65;;
22737;SDS011;11536;50.860;4.286;2022-08-19T02:47:41;25.33;;;16.55;;
22737;SDS011;11536;50.860;4.286;2022-08-19T02:50:07;26.65;;;17.70;;
22737;SDS011;11536;50.860;4.286;2022-08-19T02:52:34;27.92;;;16.85;;
22737;SDS011;11536;50.860;4.286;2022-08-19T02:55:00;28.88;;;16.88;;
22737;SDS011;11536;50.860;4.286;2022-08-19T02:57:25;24.02;;;15.63;;
22737;SDS011;11536;50.860;4.286;2022-08-19T02:59:52;25.48;;;15.25;;
22737;SDS011;11536;50.860;4.286;2022-08-19T03:02:18;25.35;;;16.15;;
22737;SDS011;11536;50.860;4.286;2022-08-19T03:04:44;25.35;;;16.27;;
22737;SDS011;11536;50.860;4.286;2022-08-19T03:07:12;27.05;;;15.88;;
22737;SDS011;11536;50.860;4.286;2022-08-19T03:09:39;25.65;;;14.35;;
22737;SDS011;11536;50.860;4.286;2022-08-19T03:12:04;24.02;;;14.38;;
22737;SDS011;11536;50.860;4.286;2022-08-19T03:14:31;23.70;;;14.75;;
22737;SDS011;11536;50.860;4.286;2022-08-19T03:17:01;26.58;;;16.00;;
22737;SDS011;11536;50.860;4.286;2022-08-19T03:19:28;27.33;;;15.15;;
22737;SDS011;11536;50.860;4.286;2022-08-19T03:21:53;23.45;;;15.13;;
22737;SDS011;11536;50.860;4.286;2022-08-19T03:24:20;28.30;;;16.17;;
22737;SDS011;11536;50.860;4.286;2022-08-19T03:26:47;26.73;;;15.45;;
22737;SDS011;11536;50.860;4.286;2022-08-19T03:29:17;23.50;;;14.15;;
22737;SDS011;11536;50.860;4.286;2022-08-19T03:31:44;23.92;;;14.98;;
22737;SDS011;11536;50.860;4.286;2022-08-19T03:34:14;26.77;;;16.35;;
22737;SDS011;11536;50.860;4.286;2022-08-19T03:36:42;26.65;;;15.80;;
22737;SDS011;11536;50.860;4.286;2022-08-19T03:39:09;24.77;;;16.45;;
22737;SDS011;11536;50.860;4.286;2022-08-19T03:41:36;27.65;;;16.20;;
22737;SDS011;11536;50.860;4.286;2022-08-19T03:44:04;24.55;;;15.23;;
22737;SDS011;11536;50.860;4.286;2022-08-19T03:46:30;21.95;;;15.30;;
22737;SDS011;11536;50.860;4.286;2022-08-19T03:48:57;27.80;;;17.42;;
22737;SDS011;11536;50.860;4.286;2022-08-19T03:51:26;25.17;;;15.68;;
22737;SDS011;11536;50.860;4.286;2022-08-19T03:53:56;24.50;;;15.18;;
22737;SDS011;11536;50.860;4.286;2022-08-19T03:56:23;27.95;;;15.52;;
22737;SDS011;11536;50.860;4.286;2022-08-19T03:58:50;28.33;;;17.00;;
22737;SDS011;11536;50.860;4.286;2022-08-19T04:01:18;27.58;;;17.05;;
22737;SDS011;11536;50.860;4.286;2022-08-19T04:03:46;21.63;;;14.07;;
22737;SDS011;11536;50.860;4.286;2022-08-19T04:06:12;25.65;;;15.32;;
22737;SDS011;11536;50.860;4.286;2022-08-19T04:08:40;24.85;;;15.00;;
22737;SDS011;11536;50.860;4.286;2022-08-19T04:11:18;26.48;;;16.13;;
22737;SDS011;11536;50.860;4.286;2022-08-19T04:13:48;25.67;;;15.95;;
22737;SDS011;11536;50.860;4.286;2022-08-19T04:16:16;25.58;;;16.67;;
22737;SDS011;11536;50.860;4.286;2022-08-19T04:18:42;25.35;;;15.95;;
22737;SDS011;11536;50.860;4.286;2022-08-19T04:21:08;27.48;;;15.93;;
22737;SDS011;11536;50.860;4.286;2022-08-19T04:23:41;24.02;;;15.43;;
22737;SDS011;11536;50.860;4.286;2022-08-19T04:26:07;28.30;;;15.85;;
22737;SDS011;11536;50.860;4.286;2022-08-19T04:28:39;23.30;;;14.55;;
22737;SDS011;11536;50.860;4.286;2022-08-19T04:31:05;27.10;;;16.25;;
22737;SDS011;11536;50.860;4.286;2022-08-19T04:33:37;27.27;;;16.08;;
22737;SDS011;11536;50.860;4.286;2022-08-19T04:36:02;26.10;;;15.02;;
22737;SDS011;11536;50.860;4.286;2022-08-19T04:38:28;25.98;;;15.15;;
22737;SDS011;11536;50.860;4.286;2022-08-19T04:40:54;34.65;;;15.73;;
22737;SDS011;11536;50.860;4.286;2022-08-19T04:43:38;22.35;;;13.88;;
22737;SDS011;11536;50.860;4.286;2022-08-19T04:46:10;23.15;;;14.95;;
22737;SDS011;11536;50.860;4.286;2022-08-19T04:48:38;26.65;;;15.38;;
22737;SDS011;11536;50.860;4.286;2022-08-19T04:51:11;26.10;;;14.90;;
22737;SDS011;11536;50.860;4.286;2022-08-19T04:53:38;23.77;;;13.85;;
22737;SDS011;11536;50.860;4.286;2022-08-19T04:56:10;25.75;;;13.73;;
22737;SDS011;11536;50.860;4.286;2022-08-19T04:58:37;22.63;;;13.30;;
22737;SDS011;11536;50.860;4.286;2022-08-19T05:01:06;22.50;;;13.57;;
22737;SDS011;11536;50.860;4.286;2022-08-19T05:03:34;20.98;;;12.93;;
22737;SDS011;11536;50.860;4.286;2022-08-19T05:06:06;24.17;;;12.13;;
22737;SDS011;11536;50.860;4.286;2022-08-19T05:08:34;22.80;;;12.85;;
22737;SDS011;11536;50.860;4.286;2022-08-19T05:11:12;21.23;;;12.40;;
22737;SDS011;11536;50.860;4.286;2022-08-19T05:13:38;22.35;;;12.57;;
22737;SDS011;11536;50.860;4.286;2022-08-19T05:16:05;20.88;;;12.20;;
22737;SDS011;11536;50.860;4.286;2022-08-19T05:18:30;26.25;;;14.13;;
22737;SDS011;11536;50.860;4.286;2022-08-19T05:21:16;20.73;;;12.30;;
22737;SDS011;11536;50.860;4.286;2022-08-19T05:24:03;23.30;;;13.50;;
22737;SDS011;11536;50.860;4.286;2022-08-19T05:26:37;23.33;;;12.82;;
22737;SDS011;11536;50.860;4.286;2022-08-19T05:29:05;23.25;;;14.30;;
22737;SDS011;11536;50.860;4.286;2022-08-19T05:31:35;23.73;;;14.77;;
22737;SDS011;11536;50.860;4.286;2022-08-19T05:34:03;28.27;;;15.43;;
22737;SDS011;11536;50.860;4.286;2022-08-19T05:36:34;28.17;;;15.05;;
22737;SDS011;11536;50.860;4.286;2022-08-19T05:41:29;27.48;;;15.20;;
22737;SDS011;11536;50.860;4.286;2022-08-19T05:43:58;28.42;;;17.27;;
22737;SDS011;11536;50.860;4.286;2022-08-19T05:46:26;28.63;;;17.27;;
22737;SDS011;11536;50.860;4.286;2022-08-19T05:48:51;30.85;;;18.45;;
22737;SDS011;11536;50.860;4.286;2022-08-19T05:51:18;30.17;;;17.20;;
22737;SDS011;11536;50.860;4.286;2022-08-19T05:53:44;27.30;;;17.55;;
22737;SDS011;11536;50.860;4.286;2022-08-19T05:56:14;22.80;;;14.68;;
22737;SDS011;11536;50.860;4.286;2022-08-19T05:58:41;28.13;;;16.55;;
22737;SDS011;11536;50.860;4.286;2022-08-19T06:01:18;25.13;;;15.40;;
22737;SDS011;11536;50.860;4.286;2022-08-19T06:03:44;26.67;;;16.17;;
22737;SDS011;11536;50.860;4.286;2022-08-19T06:06:11;26.35;;;13.63;;
22737;SDS011;11536;50.860;4.286;2022-08-19T06:08:38;22.92;;;13.52;;
22737;SDS011;11536;50.860;4.286;2022-08-19T06:14:03;22.27;;;13.18;;
22737;SDS011;11536;50.860;4.286;2022-08-19T06:16:33;28.08;;;13.27;;
22737;SDS011;11536;50.860;4.286;2022-08-19T06:19:01;22.38;;;12.88;;
22737;SDS011;11536;50.860;4.286;2022-08-19T06:21:28;22.52;;;12.60;;
22737;SDS011;11536;50.860;4.286;2022-08-19T06:23:55;19.15;;;11.52;;
22737;SDS011;11536;50.860;4.286;2022-08-19T06:26:22;17.75;;;10.85;;
22737;SDS011;11536;50.860;4.286;2022-08-19T06:28:49;20.05;;;11.57;;
22737;SDS011;11536;50.860;4.286;2022-08-19T06:31:20;19.45;;;11.40;;
22737;SDS011;11536;50.860;4.286;2022-08-19T06:33:48;22.23;;;11.98;;
22737;SDS011;11536;50.860;4.286;2022-08-19T06:38:51;18.02;;;10.68;;
22737;SDS011;11536;50.860;4.286;2022-08-19T06:41:18;18.35;;;10.55;;
22737;SDS011;11536;50.860;4.286;2022-08-19T06:43:43;16.83;;;8.93;;
22737;SDS011;11536;50.860;4.286;2022-08-19T06:46:13;17.30;;;9.10;;
22737;SDS011;11536;50.860;4.286;2022-08-19T06:48:40;17.25;;;8.75;;
22737;SDS011;11536;50.860;4.286;2022-08-19T06:51:06;14.70;;;7.88;;
22737;SDS011;11536;50.860;4.286;2022-08-19T06:53:32;17.25;;;9.73;;
22737;SDS011;11536;50.860;4.286;2022-08-19T06:55:58;17.08;;;8.68;;
22737;SDS011;11536;50.860;4.286;2022-08-19T06:58:28;17.58;;;9.35;;
22737;SDS011;11536;50.860;4.286;2022-08-19T07:00:57;16.27;;;8.60;;
22737;SDS011;11536;50.860;4.286;2022-08-19T07:03:25;13.38;;;7.65;;
22737;SDS011;11536;50.860;4.286;2022-08-19T07:05:53;14.57;;;8.10;;
22737;SDS011;11536;50.860;4.286;2022-08-19T07:08:19;16.33;;;8.07;;
22737;SDS011;11536;50.860;4.286;2022-08-19T07:10:45;13.90;;;7.85;;
22737;SDS011;11536;50.860;4.286;2022-08-19T07:13:11;14.68;;;7.55;;
22737;SDS011;11536;50.860;4.286;2022-08-19T07:15:37;16.05;;;7.97;;
22737;SDS011;11536;50.860;4.286;2022-08-19T07:18:03;15.70;;;6.88;;
22737;SDS011;11536;50.860;4.286;2022-08-19T07:20:28;17.15;;;6.63;;
22737;SDS011;11536;50.860;4.286;2022-08-19T07:22:54;16.77;;;7.22;;
22737;SDS011;11536;50.860;4.286;2022-08-19T07:25:19;15.85;;;7.53;;
22737;SDS011;11536;50.860;4.286;2022-08-19T07:27:45;13.90;;;6.57;;
22737;SDS011;11536;50.860;4.286;2022-08-19T07:30:14;12.07;;;6.22;;
22737;SDS011;11536;50.860;4.286;2022-08-19T07:32:40;12.27;;;5.40;;
22737;SDS011;11536;50.860;4.286;2022-08-19T07:35:07;12.25;;;5.97;;
22737;SDS011;11536;50.860;4.286;2022-08-19T07:37:34;10.43;;;5.38;;
22737;SDS011;11536;50.860;4.286;2022-08-19T07:40:03;9.70;;;5.20;;
22737;SDS011;11536;50.860;4.286;2022-08-19T07:42:30;11.50;;;5.82;;
22737;SDS011;11536;50.860;4.286;2022-08-19T07:44:56;12.85;;;6.00;;
22737;SDS011;11536;50.860;4.286;2022-08-19T07:47:22;13.07;;;6.25;;
22737;SDS011;11536;50.860;4.286;2022-08-19T07:49:47;13.20;;;6.70;;
22737;SDS011;11536;50.860;4.286;2022-08-19T07:52:13;12.98;;;6.60;;
22737;SDS011;11536;50.860;4.286;2022-08-19T07:54:40;11.10;;;5.07;;
22737;SDS011;11536;50.860;4.286;2022-08-19T07:57:06;10.32;;;5.47;;
22737;SDS011;11536;50.860;4.286;2022-08-19T07:59:32;11.35;;;5.82;;
22737;SDS011;11536;50.860;4.286;2022-08-19T08:01:58;10.73;;;5.72;;
22737;SDS011;11536;50.860;4.286;2022-08-19T08:04:25;10.90;;;5.35;;
22737;SDS011;11536;50.860;4.286;2022-08-19T08:07:10;15.02;;;5.20;;
22737;SDS011;11536;50.860;4.286;2022-08-19T08:09:54;11.82;;;5.53;;
22737;SDS011;11536;50.860;4.286;2022-08-19T08:12:25;11.15;;;6.10;;
22737;SDS011;11536;50.860;4.286;2022-08-19T08:14:55;12.07;;;5.65;;
22737;SDS011;11536;50.860;4.286;2022-08-19T08:17:24;12.20;;;5.78;;
22737;SDS011;11536;50.860;4.286;2022-08-19T08:19:52;8.82;;;5.43;;
22737;SDS011;11536;50.860;4.286;2022-08-19T08:22:20;10.88;;;5.75;;
22737;SDS011;11536;50.860;4.286;2022-08-19T08:25:09;12.77;;;5.30;;
22737;SDS011;11536;50.860;4.286;2022-08-19T08:27:41;9.50;;;4.80;;
22737;SDS011;11536;50.860;4.286;2022-08-19T08:30:12;11.10;;;5.13;;
22737;SDS011;11536;50.860;4.286;2022-08-19T08:32:41;12.18;;;5.57;;
22737;SDS011;11536;50.860;4.286;2022-08-19T08:35:09;11.48;;;4.75;;
22737;SDS011;11536;50.860;4.286;2022-08-19T08:37:37;11.13;;;5.13;;
22737;SDS011;11536;50.860;4.286;2022-08-19T08:40:08;10.50;;;4.38;;
22737;SDS011;11536;50.860;4.286;2022-08-19T08:42:46;10.43;;;4.70;;
22737;SDS011;11536;50.860;4.286;2022-08-19T08:45:25;9.38;;;4.43;;
22737;SDS011;11536;50.860;4.286;2022-08-19T08:47:53;8.80;;;4.72;;
22737;SDS011;11536;50.860;4.286;2022-08-19T08:50:29;10.15;;;4.72;;
22737;SDS011;11536;50.860;4.286;2022-08-19T08:53:03;8.82;;;4.38;;
22737;SDS011;11536;50.860;4.286;2022-08-19T08:55:30;8.45;;;4.30;;
22737;SDS011;11536;50.860;4.286;2022-08-19T08:58:04;10.48;;;4.10;;
22737;SDS011;11536;50.860;4.286;2022-08-19T09:00:38;8.77;;;4.10;;
22737;SDS011;11536;50.860;4.286;2022-08-19T09:03:10;10.80;;;4.55;;
22737;SDS011;11536;50.860;4.286;2022-08-19T09:09:10;7.90;;;4.22;;
22737;SDS011;11536;50.860;4.286;2022-08-19T09:11:30;10.77;;;4.53;;
22737;SDS011;11536;50.860;4.286;2022-08-19T09:16:58;7.93;;;4.18;;
22737;SDS011;11536;50.860;4.286;2022-08-19T09:19:28;10.20;;;5.00;;
22737;SDS011;11536;50.860;4.286;2022-08-19T09:21:55;9.95;;;4.22;;
22737;SDS011;11536;50.860;4.286;2022-08-19T09:24:20;7.07;;;3.80;;
22737;SDS011;11536;50.860;4.286;2022-08-19T09:26:46;11.63;;;4.93;;
22737;SDS011;11536;50.860;4.286;2022-08-19T09:29:12;8.25;;;3.95;;
22737;SDS011;11536;50.860;4.286;2022-08-19T09:31:38;9.52;;;4.10;;
22737;SDS011;11536;50.860;4.286;2022-08-19T09:34:04;9.55;;;4.63;;
22737;SDS011;11536;50.860;4.286;2022-08-19T09:36:30;10.55;;;4.80;;
22737;SDS011;11536;50.860;4.286;2022-08-19T09:39:04;8.85;;;4.00;;
22737;SDS011;11536;50.860;4.286;2022-08-19T09:41:30;9.02;;;4.70;;
22737;SDS011;11536;50.860;4.286;2022-08-19T09:43:57;8.63;;;4.28;;
22737;SDS011;11536;50.860;4.286;2022-08-19T09:46:24;8.75;;;3.75;;
22737;SDS011;11536;50.860;4.286;2022-08-19T09:48:51;8.77;;;3.92;;
22737;SDS011;11536;50.860;4.286;2022-08-19T09:51:19;8.70;;;3.45;;
22737;SDS011;11536;50.860;4.286;2022-08-19T09:53:48;7.80;;;3.78;;
22737;SDS011;11536;50.860;4.286;2022-08-19T09:56:15;7.13;;;3.20;;
22737;SDS011;11536;50.860;4.286;2022-08-19T09:58:42;6.90;;;3.42;;
22737;SDS011;11536;50.860;4.286;2022-08-19T10:01:08;8.75;;;4.50;;
22737;SDS011;11536;50.860;4.286;2022-08-19T10:03:34;8.10;;;3.88;;
22737;SDS011;11536;50.860;4.286;2022-08-19T10:06:02;9.15;;;4.28;;
22737;SDS011;11536;50.860;4.286;2022-08-19T10:08:30;9.38;;;5.07;;
22737;SDS011;11536;50.860;4.286;2022-08-19T10:10:58;9.18;;;4.40;;
22737;SDS011;11536;50.860;4.286;2022-08-19T10:13:25;8.70;;;4.32;;
22737;SDS011;11536;50.860;4.286;2022-08-19T10:15:53;9.40;;;4.75;;
22737;SDS011;11536;50.860;4.286;2022-08-19T10:18:21;9.13;;;4.18;;
22737;SDS011;11536;50.860;4.286;2022-08-19T10:20:48;8.32;;;4.20;;
22737;SDS011;11536;50.860;4.286;2022-08-19T10:23:15;8.25;;;3.55;;
22737;SDS011;11536;50.860;4.286;2022-08-19T10:25:41;10.50;;;4.70;;
22737;SDS011;11536;50.860;4.286;2022-08-19T10:28:07;7.93;;;4.18;;
22737;SDS011;11536;50.860;4.286;2022-08-19T10:30:36;8.98;;;4.05;;
22737;SDS011;11536;50.860;4.286;2022-08-19T10:33:05;9.95;;;4.28;;
22737;SDS011;11536;50.860;4.286;2022-08-19T10:35:31;7.53;;;4.30;;
22737;SDS011;11536;50.860;4.286;2022-08-19T10:37:57;8.77;;;4.82;;
22737;SDS011;11536;50.860;4.286;2022-08-19T10:40:24;10.60;;;4.82;;
22737;SDS011;11536;50.860;4.286;2022-08-19T10:42:51;8.75;;;4.63;;
22737;SDS011;11536;50.860;4.286;2022-08-19T10:45:17;9.23;;;4.70;;
22737;SDS011;11536;50.860;4.286;2022-08-19T10:47:43;9.55;;;4.85;;
22737;SDS011;11536;50.860;4.286;2022-08-19T10:50:09;8.45;;;4.68;;
22737;SDS011;11536;50.860;4.286;2022-08-19T10:52:53;7.55;;;4.20;;
22737;SDS011;11536;50.860;4.286;2022-08-19T10:55:22;7.60;;;3.97;;
22737;SDS011;11536;50.860;4.286;2022-08-19T10:58:11;8.32;;;4.43;;
22737;SDS011;11536;50.860;4.286;2022-08-19T11:00:39;8.00;;;4.07;;
22737;SDS011;11536;50.860;4.286;2022-08-19T11:03:05;9.45;;;4.05;;
22737;SDS011;11536;50.860;4.286;2022-08-19T11:05:31;10.07;;;4.15;;
22737;SDS011;11536;50.860;4.286;2022-08-19T11:07:56;7.70;;;3.97;;
22737;SDS011;11536;50.860;4.286;2022-08-19T11:10:22;7.30;;;3.38;;
22737;SDS011;11536;50.860;4.286;2022-08-19T11:12:48;5.78;;;3.08;;
22737;SDS011;11536;50.860;4.286;2022-08-19T11:15:19;7.50;;;3.70;;
22737;SDS011;11536;50.860;4.286;2022-08-19T11:17:45;7.80;;;3.60;;
22737;SDS011;11536;50.860;4.286;2022-08-19T11:20:11;8.18;;;3.28;;
22737;SDS011;11536;50.860;4.286;2022-08-19T11:22:38;8.63;;;4.22;;
22737;SDS011;11536;50.860;4.286;2022-08-19T11:25:05;8.10;;;3.67;;
22737;SDS011;11536;50.860;4.286;2022-08-19T11:27:31;12.93;;;6.40;;
22737;SDS011;11536;50.860;4.286;2022-08-19T11:29:57;12.38;;;6.68;;
22737;SDS011;11536;50.860;4.286;2022-08-19T11:32:22;10.93;;;6.57;;
22737;SDS011;11536;50.860;4.286;2022-08-19T11:34:48;12.52;;;7.32;;
22737;SDS011;11536;50.860;4.286;2022-08-19T11:37:13;11.75;;;6.97;;
22737;SDS011;11536;50.860;4.286;2022-08-19T11:39:40;10.77;;;7.57;;
22737;SDS011;11536;50.860;4.286;2022-08-19T11:42:06;11.65;;;7.22;;
22737;SDS011;11536;50.860;4.286;2022-08-19T11:44:52;12.07;;;7.93;;
22737;SDS011;11536;50.860;4.286;2022-08-19T11:47:18;9.95;;;7.00;;
22737;SDS011;11536;50.860;4.286;2022-08-19T11:49:45;9.98;;;5.93;;
22737;SDS011;11536;50.860;4.286;2022-08-19T11:52:11;8.68;;;6.32;;
22737;SDS011;11536;50.860;4.286;2022-08-19T11:54:37;10.02;;;6.00;;
22737;SDS011;11536;50.860;4.286;2022-08-19T11:57:03;9.65;;;6.00;;
22737;SDS011;11536;50.860;4.286;2022-08-19T11:59:29;12.13;;;6.72;;
22737;SDS011;11536;50.860;4.286;2022-08-19T12:01:54;10.75;;;5.38;;
22737;SDS011;11536;50.860;4.286;2022-08-19T12:04:21;10.63;;;6.35;;
22737;SDS011;11536;50.860;4.286;2022-08-19T12:06:47;10.13;;;5.60;;
22737;SDS011;11536;50.860;4.286;2022-08-19T12:09:13;8.48;;;5.32;;
22737;SDS011;11536;50.860;4.286;2022-08-19T12:11:40;12.68;;;5.80;;
22737;SDS011;11536;50.860;4.286;2022-08-19T12:14:08;8.90;;;5.35;;
22737;SDS011;11536;50.860;4.286;2022-08-19T12:16:35;8.93;;;4.70;;
22737;SDS011;11536;50.860;4.286;2022-08-19T12:19:03;10.02;;;4.78;;
22737;SDS011;11536;50.860;4.286;2022-08-19T12:21:30;6.80;;;3.78;;
22737;SDS011;11536;50.860;4.286;2022-08-19T12:23:57;7.63;;;3.83;;
22737;SDS011;11536;50.860;4.286;2022-08-19T12:26:25;6.60;;;3.55;;
22737;SDS011;11536;50.860;4.286;2022-08-19T12:28:52;5.63;;;3.28;;
22737;SDS011;11536;50.860;4.286;2022-08-19T12:31:18;7.00;;;2.88;;
22737;SDS011;11536;50.860;4.286;2022-08-19T12:33:44;4.50;;;2.10;;
22737;SDS011;11536;50.860;4.286;2022-08-19T12:36:12;6.68;;;2.33;;
22737;SDS011;11536;50.860;4.286;2022-08-19T12:38:38;8.55;;;2.63;;
22737;SDS011;11536;50.860;4.286;2022-08-19T12:41:05;4.68;;;2.33;;
22737;SDS011;11536;50.860;4.286;2022-08-19T12:43:32;8.25;;;2.38;;
22737;SDS011;11536;50.860;4.286;2022-08-19T12:45:59;5.35;;;2.92;;
22737;SDS011;11536;50.860;4.286;2022-08-19T12:48:25;7.00;;;2.75;;
22737;SDS011;11536;50.860;4.286;2022-08-19T12:50:51;5.05;;;2.53;;
22737;SDS011;11536;50.860;4.286;2022-08-19T12:53:17;6.90;;;2.35;;
22737;SDS011;11536;50.860;4.286;2022-08-19T12:55:43;4.43;;;2.60;;
22737;SDS011;11536;50.860;4.286;2022-08-19T12:58:09;5.65;;;3.17;;
22737;SDS011;11536;50.860;4.286;2022-08-19T13:00:35;7.93;;;2.40;;
22737;SDS011;11536;50.860;4.286;2022-08-19T13:03:00;5.90;;;3.20;;
22737;SDS011;11536;50.860;4.286;2022-08-19T13:05:28;6.90;;;2.60;;
22737;SDS011;11536;50.860;4.286;2022-08-19T13:07:56;4.13;;;2.20;;
22737;SDS011;11536;50.860;4.286;2022-08-19T13:10:26;3.45;;;2.00;;
22737;SDS011;11536;50.860;4.286;2022-08-19T13:12:54;5.75;;;2.45;;
22737;SDS011;11536;50.860;4.286;2022-08-19T13:15:20;4.28;;;2.00;;
22737;SDS011;11536;50.860;4.286;2022-08-19T13:17:48;6.30;;;2.03;;
22737;SDS011;11536;50.860;4.286;2022-08-19T13:20:15;3.03;;;1.50;;
22737;SDS011;11536;50.860;4.286;2022-08-19T13:22:42;3.97;;;1.65;;
22737;SDS011;11536;50.860;4.286;2022-08-19T13:25:10;3.75;;;1.55;;
22737;SDS011;11536;50.860;4.286;2022-08-19T13:27:37;5.30;;;1.90;;
22737;SDS011;11536;50.860;4.286;2022-08-19T13:30:04;3.40;;;1.55;;
22737;SDS011;11536;50.860;4.286;2022-08-19T13:32:49;6.35;;;2.58;;
22737;SDS011;11536;50.860;4.286;2022-08-19T13:35:33;4.85;;;2.08;;
22737;SDS011;11536;50.860;4.286;2022-08-19T13:37:59;4.28;;;1.77;;
22737;SDS011;11536;50.860;4.286;2022-08-19T13:40:25;4.57;;;1.65;;
22737;SDS011;11536;50.860;4.286;2022-08-19T13:42:52;7.35;;;2.00;;
22737;SDS011;11536;50.860;4.286;2022-08-19T13:45:21;10.80;;;2.00;;
22737;SDS011;11536;50.860;4.286;2022-08-19T13:47:50;4.55;;;1.67;;
22737;SDS011;11536;50.860;4.286;2022-08-19T13:50:20;3.35;;;1.48;;
22737;SDS011;11536;50.860;4.286;2022-08-19T13:52:47;5.20;;;2.08;;
22737;SDS011;11536;50.860;4.286;2022-08-19T13:55:13;6.40;;;2.13;;
22737;SDS011;11536;50.860;4.286;2022-08-19T13:57:40;4.07;;;2.17;;
22737;SDS011;11536;50.860;4.286;2022-08-19T14:00:11;4.30;;;1.88;;
22737;SDS011;11536;50.860;4.286;2022-08-19T14:02:40;5.93;;;2.33;;
22737;SDS011;11536;50.860;4.286;2022-08-19T14:05:07;6.22;;;2.50;;
22737;SDS011;11536;50.860;4.286;2022-08-19T14:07:36;4.80;;;2.03;;
22737;SDS011;11536;50.860;4.286;2022-08-19T14:10:02;3.97;;;1.95;;
22737;SDS011;11536;50.860;4.286;2022-08-19T14:12:31;4.88;;;2.45;;
22737;SDS011;11536;50.860;4.286;2022-08-19T14:14:57;5.55;;;3.28;;
22737;SDS011;11536;50.860;4.286;2022-08-19T14:17:23;7.43;;;2.85;;
22737;SDS011;11536;50.860;4.286;2022-08-19T14:19:49;7.18;;;2.50;;
22737;SDS011;11536;50.860;4.286;2022-08-19T14:22:22;5.23;;;2.27;;
22737;SDS011;11536;50.860;4.286;2022-08-19T14:24:48;4.45;;;1.83;;
22737;SDS011;11536;50.860;4.286;2022-08-19T14:27:15;11.88;;;2.28;;
22737;SDS011;11536;50.860;4.286;2022-08-19T14:29:40;4.78;;;2.08;;
22737;SDS011;11536;50.860;4.286;2022-08-19T14:32:06;5.97;;;2.22;;
22737;SDS011;11536;50.860;4.286;2022-08-19T14:34:32;3.65;;;1.95;;
22737;SDS011;11536;50.860;4.286;2022-08-19T14:36:58;4.63;;;1.75;;
22737;SDS011;11536;50.860;4.286;2022-08-19T14:39:24;4.68;;;2.30;;
22737;SDS011;11536;50.860;4.286;2022-08-19T14:41:50;5.63;;;2.53;;
22737;SDS011;11536;50.860;4.286;2022-08-19T14:44:15;4.57;;;1.80;;
22737;SDS011;11536;50.860;4.286;2022-08-19T14:46:41;7.00;;;2.10;;
22737;SDS011;11536;50.860;4.286;2022-08-19T14:49:07;4.40;;;2.30;;
22737;SDS011;11536;50.860;4.286;2022-08-19T14:51:32;4.40;;;2.13;;
22737;SDS011;11536;50.860;4.286;2022-08-19T14:53:58;5.55;;;2.10;;